sensor_id;sensor_type;location;lat;lon;timestamp;pressure;altitude;pressure_sealevel;temperature;humidity
33949;BME280;20229;49.856;19.030;2023-03-23T00:02:41;101120.28;;;12.26;66.76
33949;BME280;20229;49.856;19.030;2023-03-23T00:07:57;101121.39;;;12.22;67.01
33949;BME280;20229;49.856;19.030;2023-03-23T00:13:12;101113.19;;;12.22;66.72
33949;BME280;20229;49.856;19.030;2023-03-23T00:18:31;101120.62;;;12.20;66.82
33949;BME280;20229;49.856;19.030;2023-03-23T00:23:45;101123.95;;;12.25;66.57
33949;BME280;20229;49.856;19.030;2023-03-23T00:29:02;101113.99;;;12.24;66.43
33949;BME280;20229;49.856;19.030;2023-03-23T00:34:21;101110.81;;;12.32;66.67
33949;BME280;20229;49.856;19.030;2023-03-23T00:39:35;101110.37;;;12.39;66.42
33949;BME280;20229;49.856;19.030;2023-03-23T00:44:57;101103.66;;;12.45;66.21
33949;BME280;20229;49.856;19.030;2023-03-23T00:50:15;101104.55;;;12.46;66.03
33949;BME280;20229;49.856;19.030;2023-03-23T00:55:31;101106.30;;;12.47;65.93
33949;BME280;20229;49.856;19.030;2023-03-23T01:00:46;101107.98;;;12.49;65.83
33949;BME280;20229;49.856;19.030;2023-03-23T01:06:05;101095.18;;;12.50;66.00
33949;BME280;20229;49.856;19.030;2023-03-23T01:11:19;101099.06;;;12.46;65.93
33949;BME280;20229;49.856;19.030;2023-03-23T01:16:33;101088.12;;;12.46;65.89
33949;BME280;20229;49.856;19.030;2023-03-23T01:21:47;101097.31;;;12.44;65.84
33949;BME280;20229;49.856;19.030;2023-03-23T01:27:02;101103.39;;;12.50;65.49
33949;BME280;20229;49.856;19.030;2023-03-23T01:32:20;101108.16;;;12.46;65.79
33949;BME280;20229;49.856;19.030;2023-03-23T01:37:34;101104.89;;;12.39;65.66
33949;BME280;20229;49.856;19.030;2023-03-23T01:42:50;101115.13;;;12.36;66.47
33949;BME280;20229;49.856;19.030;2023-03-23T01:48:09;101115.31;;;12.33;66.34
33949;BME280;20229;49.856;19.030;2023-03-23T01:53:28;101118.83;;;12.19;67.05
33949;BME280;20229;49.856;19.030;2023-03-23T01:58:43;101107.98;;;12.02;67.99
33949;BME280;20229;49.856;19.030;2023-03-23T02:03:57;101103.28;;;11.88;68.06
33949;BME280;20229;49.856;19.030;2023-03-23T02:09:13;101100.74;;;11.83;68.66
33949;BME280;20229;49.856;19.030;2023-03-23T02:14:31;101099.15;;;11.79;68.92
33949;BME280;20229;49.856;19.030;2023-03-23T02:31:21;101112.56;;;11.51;70.83
33949;BME280;20229;49.856;19.030;2023-03-23T02:42:08;101093.42;;;11.51;70.24
33949;BME280;20229;49.856;19.030;2023-03-23T02:47:25;101087.11;;;11.66;70.05
33949;BME280;20229;49.856;19.030;2023-03-23T02:52:43;101073.04;;;11.73;69.41
33949;BME280;20229;49.856;19.030;2023-03-23T02:57:57;101072.30;;;11.87;69.11
33949;BME280;20229;49.856;19.030;2023-03-23T03:03:17;101065.31;;;11.98;68.18
33949;BME280;20229;49.856;19.030;2023-03-23T03:08:42;101075.66;;;12.08;67.80
33949;BME280;20229;49.856;19.030;2023-03-23T03:19:26;101060.57;;;12.17;67.33
33949;BME280;20229;49.856;19.030;2023-03-23T03:24:43;101064.09;;;12.19;67.24
33949;BME280;20229;49.856;19.030;2023-03-23T03:30:00;101058.27;;;12.25;66.88
33949;BME280;20229;49.856;19.030;2023-03-23T03:35:17;101058.10;;;12.28;67.01
33949;BME280;20229;49.856;19.030;2023-03-23T03:40:32;101058.97;;;12.29;66.90
33949;BME280;20229;49.856;19.030;2023-03-23T03:45:46;101067.29;;;12.27;66.79
33949;BME280;20229;49.856;19.030;2023-03-23T03:51:00;101059.85;;;12.29;66.93
33949;BME280;20229;49.856;19.030;2023-03-23T03:56:16;101065.53;;;12.26;66.62
33949;BME280;20229;49.856;19.030;2023-03-23T04:01:29;101071.01;;;12.26;66.84
33949;BME280;20229;49.856;19.030;2023-03-23T04:06:44;101071.01;;;12.26;66.84
33949;BME280;20229;49.856;19.030;2023-03-23T04:11:58;101058.10;;;12.28;66.45
33949;BME280;20229;49.856;19.030;2023-03-23T04:17:11;101061.63;;;12.30;66.36
33949;BME280;20229;49.856;19.030;2023-03-23T04:22:27;101065.96;;;12.34;66.37
33949;BME280;20229;49.856;19.030;2023-03-23T04:27:44;101063.05;;;12.37;66.56
33949;BME280;20229;49.856;19.030;2023-03-23T04:33:04;101068.25;;;12.42;66.05
33949;BME280;20229;49.856;19.030;2023-03-23T04:38:19;101062.66;;;12.43;65.94
33949;BME280;20229;49.856;19.030;2023-03-23T04:43:34;101069.93;;;12.44;66.14
33949;BME280;20229;49.856;19.030;2023-03-23T04:48:54;101065.51;;;12.42;66.02
33949;BME280;20229;49.856;19.030;2023-03-23T04:54:09;101061.79;;;12.43;65.39
33949;BME280;20229;49.856;19.030;2023-03-23T04:59:23;101071.79;;;12.44;65.61
33949;BME280;20229;49.856;19.030;2023-03-23T05:04:41;101057.83;;;12.49;65.67
33949;BME280;20229;49.856;19.030;2023-03-23T05:09:54;101055.43;;;12.58;65.02
33949;BME280;20229;49.856;19.030;2023-03-23T05:15:11;101062.02;;;12.70;64.43
33949;BME280;20229;49.856;19.030;2023-03-23T05:20:25;101068.80;;;12.79;64.36
33949;BME280;20229;49.856;19.030;2023-03-23T05:25:39;101078.34;;;12.87;63.95
33949;BME280;20229;49.856;19.030;2023-03-23T05:30:56;101071.69;;;12.91;63.98
33949;BME280;20229;49.856;19.030;2023-03-23T05:36:10;101073.88;;;13.01;63.50
33949;BME280;20229;49.856;19.030;2023-03-23T05:41:26;101066.77;;;13.12;62.42
33949;BME280;20229;49.856;19.030;2023-03-23T05:46:42;101064.96;;;13.27;62.46
33949;BME280;20229;49.856;19.030;2023-03-23T05:51:57;101066.73;;;13.43;62.08
33949;BME280;20229;49.856;19.030;2023-03-23T05:57:11;101056.38;;;13.62;61.45
33949;BME280;20229;49.856;19.030;2023-03-23T06:02:25;101050.31;;;13.85;60.15
33949;BME280;20229;49.856;19.030;2023-03-23T06:07:43;101072.04;;;14.17;59.80
33949;BME280;20229;49.856;19.030;2023-03-23T06:12:57;101066.19;;;14.50;59.88
33949;BME280;20229;49.856;19.030;2023-03-23T06:18:10;101072.16;;;14.84;58.51
33949;BME280;20229;49.856;19.030;2023-03-23T06:23:26;101066.92;;;15.19;56.85
33949;BME280;20229;49.856;19.030;2023-03-23T06:28:40;101068.09;;;15.55;56.30
33949;BME280;20229;49.856;19.030;2023-03-23T06:33:55;101070.08;;;15.91;56.30
33949;BME280;20229;49.856;19.030;2023-03-23T06:39:09;101078.73;;;16.23;55.28
33949;BME280;20229;49.856;19.030;2023-03-23T06:44:25;101071.38;;;16.48;54.31
33949;BME280;20229;49.856;19.030;2023-03-23T06:49:40;101066.06;;;16.82;54.22
33949;BME280;20229;49.856;19.030;2023-03-23T06:54:54;101067.99;;;17.28;52.89
33949;BME280;20229;49.856;19.030;2023-03-23T07:00:10;101056.48;;;17.91;50.03
33949;BME280;20229;49.856;19.030;2023-03-23T07:05:28;101055.83;;;17.77;50.25
33949;BME280;20229;49.856;19.030;2023-03-23T07:10:42;101059.55;;;17.64;50.70
33949;BME280;20229;49.856;19.030;2023-03-23T07:15:57;101055.05;;;17.75;50.81
33949;BME280;20229;49.856;19.030;2023-03-23T07:21:11;101067.45;;;18.48;49.47
33949;BME280;20229;49.856;19.030;2023-03-23T07:26:25;101068.75;;;19.82;46.65
33949;BME280;20229;49.856;19.030;2023-03-23T07:31:39;101064.49;;;20.99;43.86
33949;BME280;20229;49.856;19.030;2023-03-23T07:36:53;101053.81;;;22.00;42.61
33949;BME280;20229;49.856;19.030;2023-03-23T07:42:08;101051.74;;;22.84;40.39
33949;BME280;20229;49.856;19.030;2023-03-23T07:47:22;101059.60;;;22.71;39.50
33949;BME280;20229;49.856;19.030;2023-03-23T07:52:37;101052.36;;;22.33;39.37
33949;BME280;20229;49.856;19.030;2023-03-23T07:57:53;101049.77;;;21.84;39.96
33949;BME280;20229;49.856;19.030;2023-03-23T08:03:07;101055.40;;;22.39;39.12
33949;BME280;20229;49.856;19.030;2023-03-23T08:08:27;101058.42;;;22.18;39.07
33949;BME280;20229;49.856;19.030;2023-03-23T08:13:42;101068.82;;;22.72;40.00
33949;BME280;20229;49.856;19.030;2023-03-23T08:18:56;101068.33;;;23.40;37.28
33949;BME280;20229;49.856;19.030;2023-03-23T08:24:11;101075.66;;;23.23;36.46
33949;BME280;20229;49.856;19.030;2023-03-23T08:29:25;101071.99;;;22.59;37.09
33949;BME280;20229;49.856;19.030;2023-03-23T08:34:39;101068.34;;;22.31;37.70
33949;BME280;20229;49.856;19.030;2023-03-23T08:39:55;101065.22;;;21.96;38.10
33949;BME280;20229;49.856;19.030;2023-03-23T08:45:12;101071.16;;;21.74;38.09
33949;BME280;20229;49.856;19.030;2023-03-23T08:50:29;101081.68;;;21.80;38.70
33949;BME280;20229;49.856;19.030;2023-03-23T08:55:44;101078.46;;;21.75;38.00
33949;BME280;20229;49.856;19.030;2023-03-23T09:00:58;101075.28;;;21.51;38.64
33949;BME280;20229;49.856;19.030;2023-03-23T09:06:14;101070.02;;;21.47;38.71
33949;BME280;20229;49.856;19.030;2023-03-23T09:11:29;101072.03;;;21.75;39.46
33949;BME280;20229;49.856;19.030;2023-03-23T09:16:43;101064.08;;;21.89;39.72
33949;BME280;20229;49.856;19.030;2023-03-23T09:21:56;101071.93;;;22.04;39.50
33949;BME280;20229;49.856;19.030;2023-03-23T09:31:47;101065.50;;;22.03;36.45
33949;BME280;20229;49.856;19.030;2023-03-23T09:37:13;101072.96;;;22.03;37.82
33949;BME280;20229;49.856;19.030;2023-03-23T09:53:23;101062.80;;;22.76;37.93
33949;BME280;20229;49.856;19.030;2023-03-23T09:58:50;101062.80;;;22.76;35.83
33949;BME280;20229;49.856;19.030;2023-03-23T10:09:30;101054.98;;;22.62;36.99
33949;BME280;20229;49.856;19.030;2023-03-23T10:31:43;101042.69;;;22.00;36.22
33949;BME280;20229;49.856;19.030;2023-03-23T10:37:10;101035.08;;;22.02;36.73
33949;BME280;20229;49.856;19.030;2023-03-23T10:42:31;101040.97;;;22.54;37.11
33949;BME280;20229;49.856;19.030;2023-03-23T10:47:51;101048.10;;;22.84;35.25
33949;BME280;20229;49.856;19.030;2023-03-23T10:53:21;101050.91;;;23.20;35.15
33949;BME280;20229;49.856;19.030;2023-03-23T10:58:32;101037.47;;;23.59;35.30
33949;BME280;20229;49.856;19.030;2023-03-23T11:03:48;101033.48;;;23.61;35.12
33949;BME280;20229;49.856;19.030;2023-03-23T11:15:15;101034.98;;;23.30;35.32
33949;BME280;20229;49.856;19.030;2023-03-23T11:20:23;101042.47;;;23.29;35.77
33949;BME280;20229;49.856;19.030;2023-03-23T11:31:05;101034.09;;;22.76;35.89
33949;BME280;20229;49.856;19.030;2023-03-23T11:36:20;101034.09;;;22.76;36.46
33949;BME280;20229;49.856;19.030;2023-03-23T11:41:38;101037.37;;;23.07;35.53
33949;BME280;20229;49.856;19.030;2023-03-23T11:47:00;101034.21;;;23.02;34.92
33949;BME280;20229;49.856;19.030;2023-03-23T11:52:25;101041.09;;;22.80;35.83
33949;BME280;20229;49.856;19.030;2023-03-23T11:57:42;101021.48;;;22.54;36.12
33949;BME280;20229;49.856;19.030;2023-03-23T12:14:31;101004.90;;;22.07;37.19
33949;BME280;20229;49.856;19.030;2023-03-23T12:42:23;100998.95;;;21.55;38.23
33949;BME280;20229;49.856;19.030;2023-03-23T12:47:07;100987.44;;;21.50;37.77
33949;BME280;20229;49.856;19.030;2023-03-23T12:58:26;100998.48;;;21.69;38.07
33949;BME280;20229;49.856;19.030;2023-03-23T13:03:49;100992.91;;;21.69;37.44
33949;BME280;20229;49.856;19.030;2023-03-23T13:31:28;100974.50;;;21.68;37.19
33949;BME280;20229;49.856;19.030;2023-03-23T13:36:59;100966.34;;;21.66;38.29
33949;BME280;20229;49.856;19.030;2023-03-23T13:42:21;100960.80;;;21.57;37.78
33949;BME280;20229;49.856;19.030;2023-03-23T13:47:38;100962.57;;;21.48;38.43
33949;BME280;20229;49.856;19.030;2023-03-23T13:52:57;100961.14;;;21.34;39.12
33949;BME280;20229;49.856;19.030;2023-03-23T13:58:21;100959.66;;;21.30;38.39
33949;BME280;20229;49.856;19.030;2023-03-23T14:03:40;100950.18;;;21.23;38.67
33949;BME280;20229;49.856;19.030;2023-03-23T14:08:56;100958.96;;;21.28;38.78
33949;BME280;20229;49.856;19.030;2023-03-23T14:14:22;100958.10;;;21.18;38.80
33949;BME280;20229;49.856;19.030;2023-03-23T14:20:06;100954.17;;;21.11;38.76
33949;BME280;20229;49.856;19.030;2023-03-23T14:25:20;100948.17;;;21.06;38.80
33949;BME280;20229;49.856;19.030;2023-03-23T14:30:36;100946.44;;;20.95;38.57
33949;BME280;20229;49.856;19.030;2023-03-23T14:35:50;100945.72;;;20.93;38.27
33949;BME280;20229;49.856;19.030;2023-03-23T14:41:05;100938.86;;;20.87;38.68
33949;BME280;20229;49.856;19.030;2023-03-23T14:46:19;100942.21;;;20.81;39.07
33949;BME280;20229;49.856;19.030;2023-03-23T14:51:33;100949.98;;;20.68;38.78
33949;BME280;20229;49.856;19.030;2023-03-23T14:56:49;100946.62;;;20.64;39.88
33949;BME280;20229;49.856;19.030;2023-03-23T15:02:03;100939.04;;;20.57;39.20
33949;BME280;20229;49.856;19.030;2023-03-23T15:07:18;100944.38;;;20.48;39.10
33949;BME280;20229;49.856;19.030;2023-03-23T15:12:34;100937.38;;;20.44;39.97
33949;BME280;20229;49.856;19.030;2023-03-23T15:17:50;100932.12;;;20.41;39.70
33949;BME280;20229;49.856;19.030;2023-03-23T15:23:08;100937.64;;;20.32;39.90
33949;BME280;20229;49.856;19.030;2023-03-23T15:28:31;100939.67;;;20.20;39.83
33949;BME280;20229;49.856;19.030;2023-03-23T15:33:46;100934.70;;;20.04;40.23
33949;BME280;20229;49.856;19.030;2023-03-23T15:39:05;100938.59;;;19.92;40.58
33949;BME280;20229;49.856;19.030;2023-03-23T15:44:30;100934.63;;;19.85;40.58
33949;BME280;20229;49.856;19.030;2023-03-23T15:49:45;100934.59;;;19.75;40.82
33949;BME280;20229;49.856;19.030;2023-03-23T15:55:01;100926.11;;;19.67;41.37
33949;BME280;20229;49.856;19.030;2023-03-23T16:00:17;100930.70;;;19.56;40.92
33949;BME280;20229;49.856;19.030;2023-03-23T16:05:32;100926.88;;;19.48;40.77
33949;BME280;20229;49.856;19.030;2023-03-23T16:10:47;100937.63;;;19.41;40.83
33949;BME280;20229;49.856;19.030;2023-03-23T16:16:02;100937.46;;;19.33;41.42
33949;BME280;20229;49.856;19.030;2023-03-23T16:21:18;100931.98;;;19.22;41.04
33949;BME280;20229;49.856;19.030;2023-03-23T16:26:31;100924.37;;;19.14;40.74
33949;BME280;20229;49.856;19.030;2023-03-23T16:31:45;100936.28;;;19.05;41.16
33949;BME280;20229;49.856;19.030;2023-03-23T16:36:59;100942.00;;;18.92;41.89
33949;BME280;20229;49.856;19.030;2023-03-23T16:42:13;100946.31;;;18.85;41.74
33949;BME280;20229;49.856;19.030;2023-03-23T16:47:26;100938.09;;;18.74;41.78
33949;BME280;20229;49.856;19.030;2023-03-23T16:52:43;100946.16;;;18.54;42.03
33949;BME280;20229;49.856;19.030;2023-03-23T16:57:59;100953.28;;;18.36;42.57
33949;BME280;20229;49.856;19.030;2023-03-23T17:03:15;100963.62;;;18.23;42.54
33949;BME280;20229;49.856;19.030;2023-03-23T17:08:28;100976.45;;;18.12;43.67
33949;BME280;20229;49.856;19.030;2023-03-23T17:13:42;100968.08;;;18.03;43.05
33949;BME280;20229;49.856;19.030;2023-03-23T17:18:56;100972.47;;;17.94;43.72
33949;BME280;20229;49.856;19.030;2023-03-23T17:24:10;100971.74;;;17.92;43.39
33949;BME280;20229;49.856;19.030;2023-03-23T17:29:24;100969.47;;;17.86;43.37
33949;BME280;20229;49.856;19.030;2023-03-23T17:34:38;100977.52;;;17.78;43.67
33949;BME280;20229;49.856;19.030;2023-03-23T17:39:52;100989.03;;;17.72;43.75
33949;BME280;20229;49.856;19.030;2023-03-23T17:45:08;100987.29;;;17.71;44.07
33949;BME280;20229;49.856;19.030;2023-03-23T17:50:22;100990.40;;;17.66;43.96
33949;BME280;20229;49.856;19.030;2023-03-23T17:55:35;100997.94;;;17.64;44.14
33949;BME280;20229;49.856;19.030;2023-03-23T18:00:49;100999.31;;;17.58;44.97
33949;BME280;20229;49.856;19.030;2023-03-23T18:06:06;100999.80;;;17.52;44.94
33949;BME280;20229;49.856;19.030;2023-03-23T18:11:21;101000.33;;;17.46;45.02
33949;BME280;20229;49.856;19.030;2023-03-23T18:16:35;100984.88;;;17.43;45.72
33949;BME280;20229;49.856;19.030;2023-03-23T18:21:49;100971.70;;;17.36;45.25
33949;BME280;20229;49.856;19.030;2023-03-23T18:27:04;100996.15;;;17.29;45.71
33949;BME280;20229;49.856;19.030;2023-03-23T18:32:18;100996.76;;;17.22;45.99
33949;BME280;20229;49.856;19.030;2023-03-23T18:37:33;101010.02;;;17.16;46.26
33949;BME280;20229;49.856;19.030;2023-03-23T18:42:48;101015.41;;;17.07;46.98
33949;BME280;20229;49.856;19.030;2023-03-23T18:48:02;101024.04;;;17.02;47.30
33949;BME280;20229;49.856;19.030;2023-03-23T18:53:17;101035.30;;;16.99;47.24
33949;BME280;20229;49.856;19.030;2023-03-23T18:58:32;101037.42;;;16.95;47.35
33949;BME280;20229;49.856;19.030;2023-03-23T19:03:46;101045.05;;;16.92;48.84
33949;BME280;20229;49.856;19.030;2023-03-23T19:09:00;101039.13;;;16.85;49.37
33949;BME280;20229;49.856;19.030;2023-03-23T19:14:14;101036.87;;;16.79;49.04
33949;BME280;20229;49.856;19.030;2023-03-23T19:19:29;101033.24;;;16.79;49.79
33949;BME280;20229;49.856;19.030;2023-03-23T19:24:43;101054.86;;;16.72;51.06
33949;BME280;20229;49.856;19.030;2023-03-23T19:29:58;101037.91;;;16.65;50.92
33949;BME280;20229;49.856;19.030;2023-03-23T19:35:11;101035.60;;;16.59;51.28
33949;BME280;20229;49.856;19.030;2023-03-23T19:40:26;101045.88;;;16.57;50.19
33949;BME280;20229;49.856;19.030;2023-03-23T19:45:42;101033.08;;;16.56;50.45
33949;BME280;20229;49.856;19.030;2023-03-23T19:50:56;101031.10;;;16.58;50.06
33949;BME280;20229;49.856;19.030;2023-03-23T19:56:19;101043.13;;;16.57;50.06
33949;BME280;20229;49.856;19.030;2023-03-23T20:01:36;101055.03;;;16.58;49.81
33949;BME280;20229;49.856;19.030;2023-03-23T20:06:50;101055.36;;;16.53;50.36
33949;BME280;20229;49.856;19.030;2023-03-23T20:12:05;101051.44;;;16.44;51.32
33949;BME280;20229;49.856;19.030;2023-03-23T20:17:19;101040.59;;;16.30;50.76
33949;BME280;20229;49.856;19.030;2023-03-23T20:22:34;101053.93;;;16.23;51.27
33949;BME280;20229;49.856;19.030;2023-03-23T20:27:48;101068.05;;;16.19;51.82
33949;BME280;20229;49.856;19.030;2023-03-23T20:33:05;101064.31;;;16.07;51.95
33949;BME280;20229;49.856;19.030;2023-03-23T20:38:19;101068.51;;;16.00;52.13
33949;BME280;20229;49.856;19.030;2023-03-23T20:43:33;101070.30;;;16.01;52.09
33949;BME280;20229;49.856;19.030;2023-03-23T20:48:48;101074.80;;;16.02;52.16
33949;BME280;20229;49.856;19.030;2023-03-23T20:54:03;101087.48;;;16.05;52.21
33949;BME280;20229;49.856;19.030;2023-03-23T20:59:19;101070.17;;;16.03;52.24
33949;BME280;20229;49.856;19.030;2023-03-23T21:04:33;101074.02;;;16.00;52.65
33949;BME280;20229;49.856;19.030;2023-03-23T21:09:49;101081.32;;;16.01;51.87
33949;BME280;20229;49.856;19.030;2023-03-23T21:15:03;101076.20;;;16.08;51.45
33949;BME280;20229;49.856;19.030;2023-03-23T21:20:18;101073.36;;;16.09;51.78
33949;BME280;20229;49.856;19.030;2023-03-23T21:25:33;101072.57;;;16.07;50.76
33949;BME280;20229;49.856;19.030;2023-03-23T21:30:50;101072.04;;;16.02;51.12
33949;BME280;20229;49.856;19.030;2023-03-23T21:36:08;101064.13;;;15.97;51.42
33949;BME280;20229;49.856;19.030;2023-03-23T21:41:23;101062.04;;;15.88;50.85
33949;BME280;20229;49.856;19.030;2023-03-23T21:46:38;101071.39;;;15.86;50.86
33949;BME280;20229;49.856;19.030;2023-03-23T21:51:56;101080.65;;;15.72;52.69
33949;BME280;20229;49.856;19.030;2023-03-23T21:57:09;101098.66;;;15.50;53.58
33949;BME280;20229;49.856;19.030;2023-03-23T22:02:24;101094.60;;;15.30;55.24
33949;BME280;20229;49.856;19.030;2023-03-23T22:07:37;101096.64;;;15.14;56.20
33949;BME280;20229;49.856;19.030;2023-03-23T22:12:52;101083.52;;;15.05;55.69
33949;BME280;20229;49.856;19.030;2023-03-23T22:18:06;101083.02;;;15.13;55.48
33949;BME280;20229;49.856;19.030;2023-03-23T22:23:20;101088.72;;;15.22;54.86
33949;BME280;20229;49.856;19.030;2023-03-23T22:28:34;101103.05;;;15.27;55.19
33949;BME280;20229;49.856;19.030;2023-03-23T22:33:52;101101.05;;;15.29;55.75
33949;BME280;20229;49.856;19.030;2023-03-23T22:39:08;101113.19;;;15.27;55.62
33949;BME280;20229;49.856;19.030;2023-03-23T22:44:22;101109.64;;;15.25;55.52
33949;BME280;20229;49.856;19.030;2023-03-23T22:49:36;101108.10;;;15.21;57.24
33949;BME280;20229;49.856;19.030;2023-03-23T22:54:50;101109.60;;;15.12;58.11
33949;BME280;20229;49.856;19.030;2023-03-23T23:00:05;101100.80;;;15.07;56.97
33949;BME280;20229;49.856;19.030;2023-03-23T23:05:26;101095.41;;;15.05;57.93
33949;BME280;20229;49.856;19.030;2023-03-23T23:10:43;101088.13;;;15.04;57.02
33949;BME280;20229;49.856;19.030;2023-03-23T23:16:00;101092.76;;;15.04;57.71
33949;BME280;20229;49.856;19.030;2023-03-23T23:21:17;101096.39;;;15.04;57.78
33949;BME280;20229;49.856;19.030;2023-03-23T23:26:31;101106.82;;;14.99;58.35
33949;BME280;20229;49.856;19.030;2023-03-23T23:31:44;101099.00;;;14.93;58.96
33949;BME280;20229;49.856;19.030;2023-03-23T23:36:59;101100.41;;;14.86;59.07
33949;BME280;20229;49.856;19.030;2023-03-23T23:42:14;101095.44;;;14.78;59.73
33949;BME280;20229;49.856;19.030;2023-03-23T23:47:28;101102.41;;;14.70;60.06
33949;BME280;20229;49.856;19.030;2023-03-23T23:52:42;101099.98;;;14.65;60.48
33949;BME280;20229;49.856;19.030;2023-03-23T23:57:57;101100.38;;;14.59;60.72
